createdAt,value
2023-01-10T00:00:57.341Z,7.07
2023-01-10T00:03:24.484Z,7.12
2023-01-10T00:05:51.631Z,7.18
2023-01-10T00:08:18.742Z,7.18
2023-01-10T00:10:45.861Z,7.13
2023-01-10T00:13:23.839Z,7.15
2023-01-10T00:15:56.626Z,7.27
2023-01-10T00:18:23.830Z,7.16
2023-01-10T00:20:50.976Z,7.11
2023-01-10T00:23:18.464Z,7.10
2023-01-10T00:25:46.657Z,7.19
2023-01-10T00:28:20.388Z,7.21
2023-01-10T00:31:06.654Z,7.15
2023-01-10T00:33:36.334Z,7.15
2023-01-10T00:36:07.288Z,7.18
2023-01-10T00:38:35.712Z,7.30
2023-01-10T00:41:24.637Z,7.21
2023-01-10T00:43:57.328Z,7.21
2023-01-10T00:46:25.326Z,7.25
2023-01-10T00:48:52.816Z,7.20
2023-01-10T00:51:20.143Z,7.15
2023-01-10T00:53:47.249Z,7.15
2023-01-10T00:56:14.483Z,7.21
2023-01-10T00:58:43.045Z,7.26
2023-01-10T01:01:10.698Z,7.16
2023-01-10T01:03:37.908Z,7.22
2023-01-10T01:06:07.200Z,7.24
2023-01-10T01:08:34.382Z,7.27
2023-01-10T01:11:02.028Z,7.19
2023-01-10T01:13:29.181Z,7.33
2023-01-10T01:16:00.252Z,7.26
2023-01-10T01:18:28.436Z,7.33
2023-01-10T01:20:57.965Z,7.23
2023-01-10T01:23:25.212Z,7.19
2023-01-10T01:25:53.910Z,7.21
2023-01-10T01:28:21.901Z,7.29
2023-01-10T01:30:50.052Z,7.22
2023-01-10T01:33:18.769Z,7.32
2023-01-10T01:35:48.985Z,7.24
2023-01-10T01:38:17.778Z,7.20
2023-01-10T01:40:45.110Z,7.11
2023-01-10T01:43:28.568Z,7.18
2023-01-10T01:46:03.024Z,7.24
2023-01-10T01:48:39.863Z,7.23
2023-01-10T01:51:19.005Z,7.21
2023-01-10T01:53:55.754Z,7.24
2023-01-10T01:56:42.730Z,7.29
2023-01-10T01:59:32.417Z,7.20
2023-01-10T02:02:17.580Z,7.27
2023-01-10T02:05:00.479Z,7.22
2023-01-10T02:07:34.352Z,7.24
2023-01-10T02:10:22.041Z,7.23
2023-01-10T02:12:53.633Z,7.24
2023-01-10T02:15:20.929Z,7.25
2023-01-10T02:17:51.345Z,7.23
2023-01-10T02:20:22.910Z,7.36
2023-01-10T02:23:26.523Z,7.21
2023-01-10T02:26:45.814Z,7.09
2023-01-10T02:29:38.589Z,7.15
2023-01-10T02:32:45.502Z,7.14
2023-01-10T02:35:40.571Z,7.19
2023-01-10T02:38:45.549Z,7.09
2023-01-10T02:41:33.676Z,7.15
2023-01-10T02:44:18.776Z,7.05
2023-01-10T02:46:49.201Z,7.21
2023-01-10T02:49:16.414Z,7.23
2023-01-10T02:51:43.550Z,7.10
2023-01-10T02:54:19.292Z,7.13
2023-01-10T02:57:32.697Z,7.03
2023-01-10T03:00:42.492Z,7.10
2023-01-10T03:03:40.585Z,7.11
2023-01-10T03:06:23.098Z,7.06
2023-01-10T03:09:02.374Z,7.09
2023-01-10T03:11:41.571Z,7.01
2023-01-10T03:14:18.887Z,6.96
2023-01-10T03:16:59.980Z,6.99
2023-01-10T03:19:33.717Z,7.09
2023-01-10T03:22:04.757Z,6.98
2023-01-10T03:24:38.812Z,7.03
2023-01-10T03:27:22.423Z,7.02
2023-01-10T03:30:01.359Z,7.04
2023-01-10T03:32:31.757Z,7.04
2023-01-10T03:35:00.780Z,6.97
2023-01-10T03:37:38.729Z,6.94
2023-01-10T03:40:23.122Z,6.89
2023-01-10T03:43:28.453Z,6.98
2023-01-10T03:46:05.764Z,6.92
2023-01-10T03:48:38.097Z,6.94
2023-01-10T03:51:07.844Z,6.93
2023-01-10T03:53:39.157Z,6.96
2023-01-10T03:56:07.676Z,6.88
2023-01-10T03:58:34.885Z,6.91
2023-01-10T04:01:02.423Z,6.92
2023-01-10T04:03:29.622Z,6.96
2023-01-10T04:05:56.735Z,6.88
2023-01-10T04:08:23.884Z,6.88
2023-01-10T04:10:51.114Z,6.92
2023-01-10T04:13:18.322Z,6.88
2023-01-10T04:15:45.475Z,6.92
2023-01-10T04:18:13.028Z,6.94
2023-01-10T04:20:40.250Z,6.92
2023-01-10T04:23:07.374Z,6.88
2023-01-10T04:25:34.550Z,6.88
2023-01-10T04:28:01.765Z,6.84
2023-01-10T04:30:28.910Z,6.95
2023-01-10T04:32:56.206Z,6.91
2023-01-10T04:35:23.360Z,6.88
2023-01-10T04:37:50.514Z,6.86
2023-01-10T04:40:19.659Z,6.89
2023-01-10T04:42:46.925Z,6.90
2023-01-10T04:45:17.582Z,6.95
2023-01-10T04:47:50.523Z,6.87
2023-01-10T04:50:17.971Z,6.93
2023-01-10T04:52:45.036Z,6.90
2023-01-10T04:55:12.194Z,6.96
2023-01-10T04:57:39.336Z,6.98
2023-01-10T05:00:07.817Z,7.01
2023-01-10T05:02:35.029Z,6.92
2023-01-10T05:05:02.388Z,6.93
2023-01-10T05:07:29.525Z,6.89
2023-01-10T05:09:56.649Z,6.97
2023-01-10T05:12:24.072Z,6.88
2023-01-10T05:14:51.210Z,6.86
2023-01-10T05:17:18.349Z,6.89
2023-01-10T05:19:45.484Z,6.81
2023-01-10T05:22:12.705Z,6.85
2023-01-10T05:24:39.832Z,6.79
2023-01-10T05:27:06.953Z,6.79
2023-01-10T05:29:35.111Z,6.78
2023-01-10T05:32:02.314Z,6.84
2023-01-10T05:34:29.507Z,6.81
2023-01-10T05:36:56.687Z,6.85
2023-01-10T05:39:23.951Z,6.83
2023-01-10T05:41:51.111Z,6.88
2023-01-10T05:44:18.283Z,6.86
2023-01-10T05:46:45.435Z,6.80
2023-01-10T05:49:12.559Z,6.85
2023-01-10T05:51:39.694Z,6.83
2023-01-10T05:54:06.829Z,6.83
2023-01-10T05:56:33.946Z,6.85
2023-01-10T05:59:23.530Z,6.80
2023-01-10T06:01:48.282Z,6.83
2023-01-10T06:04:15.505Z,6.80
2023-01-10T06:06:42.680Z,6.79
2023-01-10T06:09:09.784Z,6.84
2023-01-10T06:11:38.803Z,6.86
2023-01-10T06:14:07.668Z,6.78
2023-01-10T06:16:34.881Z,6.81
2023-01-10T06:19:02.047Z,6.69
2023-01-10T06:21:29.185Z,6.65
2023-01-10T06:23:56.325Z,6.59
2023-01-10T06:26:23.649Z,6.63
2023-01-10T06:28:50.766Z,6.46
2023-01-10T06:31:18.016Z,6.46
2023-01-10T06:33:45.444Z,6.41
2023-01-10T06:36:12.644Z,6.44
2023-01-10T06:38:39.780Z,6.32
2023-01-10T06:41:12.908Z,6.40
2023-01-10T06:43:47.340Z,6.37
2023-01-10T06:46:18.341Z,6.42
2023-01-10T06:48:47.180Z,6.40
2023-01-10T06:51:19.151Z,6.50
2023-01-10T06:53:47.772Z,6.50
2023-01-10T06:56:15.044Z,6.41
2023-01-10T06:58:42.168Z,6.55
2023-01-10T07:01:19.999Z,6.49
2023-01-10T07:03:48.055Z,6.53
2023-01-10T07:06:16.015Z,6.46
2023-01-10T07:08:46.098Z,6.56
2023-01-10T07:11:15.469Z,6.58
2023-01-10T07:13:42.621Z,6.60
2023-01-10T07:16:13.666Z,6.56
2023-01-10T07:18:43.166Z,6.92
2023-01-10T07:21:11.381Z,7.32
2023-01-10T07:23:39.366Z,8.00
2023-01-10T07:26:10.259Z,7.07
2023-01-10T07:28:37.676Z,6.84
2023-01-10T07:31:06.341Z,6.86
2023-01-10T07:33:33.532Z,6.75
2023-01-10T07:36:03.336Z,6.74
2023-01-10T07:38:30.569Z,6.71
2023-01-10T07:40:57.691Z,6.70
2023-01-10T07:43:24.809Z,6.61
2023-01-10T07:45:52.010Z,6.68
2023-01-10T07:48:19.177Z,6.65
2023-01-10T07:50:46.380Z,6.56
2023-01-10T07:53:13.631Z,6.56
2023-01-10T07:55:41.126Z,6.54
2023-01-10T07:58:08.352Z,6.63
2023-01-10T08:00:35.770Z,6.61
2023-01-10T08:03:03.268Z,6.60
2023-01-10T08:05:30.551Z,6.59
2023-01-10T08:08:00.081Z,6.60
2023-01-10T08:10:27.663Z,6.60
2023-01-10T08:12:54.989Z,6.63
2023-01-10T08:15:22.730Z,6.68
2023-01-10T08:17:49.897Z,6.60
2023-01-10T08:20:17.486Z,6.66
2023-01-10T08:22:45.085Z,6.70
2023-01-10T08:25:12.274Z,6.66
2023-01-10T08:27:39.579Z,6.64
2023-01-10T08:30:07.692Z,6.73
2023-01-10T08:32:34.817Z,6.67
2023-01-10T08:35:02.032Z,6.72
2023-01-10T08:37:29.263Z,6.65
2023-01-10T08:39:56.466Z,6.67
2023-01-10T08:42:23.816Z,6.81
2023-01-10T08:44:50.937Z,6.79
2023-01-10T08:47:19.031Z,6.78
2023-01-10T08:49:49.635Z,6.88
2023-01-10T08:52:17.288Z,6.86
2023-01-10T08:54:44.503Z,6.88
2023-01-10T08:57:11.913Z,6.88
2023-01-10T08:59:39.027Z,7.01
2023-01-10T09:02:08.517Z,6.88
2023-01-10T09:04:35.723Z,6.93
2023-01-10T09:07:02.954Z,6.94
2023-01-10T09:09:30.141Z,6.95
2023-01-10T09:11:57.675Z,6.96
2023-01-10T09:14:24.834Z,6.93
2023-01-10T09:16:52.379Z,7.09
2023-01-10T09:19:19.490Z,6.89
2023-01-10T09:21:46.625Z,7.04
2023-01-10T09:24:13.737Z,7.18
2023-01-10T09:26:41.409Z,7.21
2023-01-10T09:29:08.557Z,7.14
2023-01-10T09:31:35.738Z,7.21
2023-01-10T09:34:02.992Z,7.37
2023-01-10T09:36:30.224Z,7.34
2023-01-10T09:38:57.457Z,7.48
2023-01-10T09:41:51.130Z,7.43
2023-01-10T09:44:36.401Z,7.38
2023-01-10T09:47:23.355Z,7.44
2023-01-10T09:50:18.995Z,7.52
2023-01-10T09:53:13.575Z,7.53
2023-01-10T09:55:43.307Z,7.48
2023-01-10T09:58:16.579Z,7.39
2023-01-10T10:00:57.711Z,7.39
2023-01-10T10:03:41.045Z,7.47
2023-01-10T10:06:13.443Z,7.57
2023-01-10T10:08:44.247Z,7.51
2023-01-10T10:11:36.233Z,7.56
2023-01-10T10:14:44.454Z,7.57
2023-01-10T10:17:40.548Z,7.47
2023-01-10T10:20:39.772Z,7.45
2023-01-10T10:23:37.657Z,7.47
2023-01-10T10:26:23.899Z,7.50
2023-01-10T10:29:18.999Z,7.57
2023-01-10T10:32:24.559Z,7.56
2023-01-10T10:35:02.003Z,7.65
2023-01-10T10:37:54.045Z,7.61
2023-01-10T10:40:25.917Z,7.54
2023-01-10T10:42:57.005Z,7.51
2023-01-10T10:45:48.930Z,7.51
2023-01-10T10:48:24.830Z,7.55
2023-01-10T10:50:59.906Z,7.56
2023-01-10T10:53:27.461Z,7.60
2023-01-10T10:55:56.230Z,7.58
2023-01-10T10:58:23.816Z,7.56
2023-01-10T11:00:51.111Z,7.51
2023-01-10T11:04:06.210Z,7.49
2023-01-10T11:06:36.987Z,7.47
2023-01-10T11:09:07.160Z,7.51
2023-01-10T11:11:43.751Z,7.49
2023-01-10T11:14:12.796Z,7.48
2023-01-10T11:16:44.820Z,7.63
2023-01-10T11:19:27.252Z,7.59
2023-01-10T11:22:06.004Z,7.64
2023-01-10T11:24:53.377Z,7.69
2023-01-10T11:27:26.334Z,7.77
2023-01-10T11:29:59.169Z,7.69
2023-01-10T11:32:38.473Z,7.71
2023-01-10T11:35:21.843Z,7.78
2023-01-10T11:38:17.921Z,7.79
2023-01-10T11:41:01.735Z,7.76
2023-01-10T11:43:39.271Z,7.80
2023-01-10T11:46:17.469Z,7.81
2023-01-10T11:49:07.808Z,7.75
2023-01-10T11:51:47.933Z,7.74
2023-01-10T11:54:21.334Z,7.86
2023-01-10T11:57:08.302Z,7.86
2023-01-10T11:59:35.795Z,7.97
2023-01-10T12:02:14.908Z,7.94
2023-01-10T12:04:47.566Z,8.00
2023-01-10T12:07:14.764Z,7.87
2023-01-10T12:09:47.699Z,8.07
2023-01-10T12:12:25.486Z,8.01
2023-01-10T12:14:55.152Z,7.99
2023-01-10T12:17:32.173Z,8.09
2023-01-10T12:20:02.379Z,8.12
2023-01-10T12:22:40.891Z,8.05
2023-01-10T12:25:40.409Z,8.12
2023-01-10T12:28:26.032Z,8.11
2023-01-10T12:30:56.729Z,8.04
2023-01-10T12:33:32.743Z,7.98
2023-01-10T12:36:15.831Z,8.05
2023-01-10T12:39:04.049Z,8.05
2023-01-10T12:42:01.558Z,7.96
2023-01-10T12:44:43.429Z,7.95
2023-01-10T12:47:22.140Z,8.02
2023-01-10T12:50:28.963Z,7.95
2023-01-10T12:53:33.836Z,7.98
2023-01-10T12:56:07.773Z,7.89
2023-01-10T12:58:43.938Z,7.91
2023-01-10T13:01:29.853Z,7.91
2023-01-10T13:04:06.323Z,7.85
2023-01-10T13:06:37.888Z,7.87
2023-01-10T13:09:27.603Z,7.89
2023-01-10T13:12:24.267Z,7.91
2023-01-10T13:15:19.737Z,8.21
2023-01-10T13:18:01.584Z,8.31
2023-01-10T13:20:41.390Z,8.20
2023-01-10T13:23:30.767Z,8.12
2023-01-10T13:26:09.105Z,8.10
2023-01-10T13:28:41.416Z,8.00
2023-01-10T13:31:26.376Z,8.02
2023-01-10T13:34:00.154Z,7.90
2023-01-10T13:36:35.650Z,7.89
2023-01-10T13:39:09.063Z,8.00
2023-01-10T13:42:16.708Z,8.01
2023-01-10T13:45:02.123Z,7.92
2023-01-10T13:47:43.191Z,7.91
2023-01-10T13:50:25.521Z,7.88
2023-01-10T13:53:06.932Z,7.89
2023-01-10T13:55:39.968Z,7.93
2023-01-10T13:58:09.702Z,7.93
2023-01-10T14:00:55.588Z,7.94
2023-01-10T14:03:42.354Z,7.89
2023-01-10T14:06:37.728Z,7.87
2023-01-10T14:09:13.656Z,7.92
2023-01-10T14:11:43.702Z,7.79
2023-01-10T14:14:33.623Z,7.89
2023-01-10T14:17:26.010Z,7.90
2023-01-10T14:20:06.344Z,7.89
2023-01-10T14:22:38.191Z,8.17
2023-01-10T14:25:18.813Z,8.42
2023-01-10T14:27:50.699Z,8.33
2023-01-10T14:30:29.482Z,7.96
2023-01-10T14:33:07.779Z,7.91
2023-01-10T14:35:43.500Z,7.85
2023-01-10T14:38:25.987Z,7.92
2023-01-10T14:41:00.551Z,7.85
2023-01-10T14:43:38.678Z,7.85
2023-01-10T14:46:15.837Z,7.96
2023-01-10T14:48:53.323Z,7.90
2023-01-10T14:51:29.894Z,7.94
2023-01-10T14:54:04.125Z,7.90
2023-01-10T14:56:41.750Z,7.92
2023-01-10T14:59:34.214Z,7.64
2023-01-10T15:02:23.958Z,7.78
2023-01-10T15:05:07.528Z,7.86
2023-01-10T15:07:36.377Z,7.85
2023-01-10T15:10:23.047Z,7.73
2023-01-10T15:12:56.127Z,7.85
2023-01-10T15:15:34.262Z,7.74
2023-01-10T15:18:12.918Z,7.72
2023-01-10T15:20:40.303Z,7.71
2023-01-10T15:23:14.992Z,7.78
2023-01-10T15:25:44.093Z,7.73
2023-01-10T15:28:18.022Z,7.57
2023-01-10T15:30:46.877Z,7.64
2023-01-10T15:33:24.288Z,7.76
2023-01-10T15:35:51.407Z,7.76
2023-01-10T15:38:26.400Z,7.76
2023-01-10T15:41:02.614Z,7.39
2023-01-10T15:43:32.079Z,7.55
2023-01-10T15:46:05.525Z,7.41
2023-01-10T15:48:43.827Z,7.27
2023-01-10T15:51:20.795Z,7.31
2023-01-10T15:53:58.850Z,7.36
2023-01-10T15:56:39.545Z,7.34
2023-01-10T15:59:40.788Z,7.29
2023-01-10T16:02:24.601Z,7.37
2023-01-10T16:04:57.742Z,7.30
2023-01-10T16:07:33.947Z,7.30
2023-01-10T16:10:08.369Z,7.32
2023-01-10T16:12:58.481Z,7.18
2023-01-10T16:15:33.019Z,7.29
2023-01-10T16:18:00.212Z,7.25
2023-01-10T16:20:41.321Z,7.25
2023-01-10T16:23:34.267Z,7.30
2023-01-10T16:26:08.977Z,7.16
2023-01-10T16:28:37.492Z,7.18
2023-01-10T16:31:07.106Z,7.18
2023-01-10T16:33:36.797Z,7.21
2023-01-10T16:36:11.533Z,7.03
2023-01-10T16:38:38.684Z,6.86
2023-01-10T16:41:25.762Z,7.09
2023-01-10T16:43:53.828Z,6.98
2023-01-10T16:46:21.802Z,6.91
2023-01-10T16:48:50.017Z,7.07
2023-01-10T16:51:24.270Z,7.09
2023-01-10T16:53:51.821Z,7.01
2023-01-10T16:56:27.342Z,7.06
2023-01-10T16:58:55.432Z,6.99
2023-01-10T17:01:31.831Z,7.03
2023-01-10T17:04:00.348Z,6.94
2023-01-10T17:06:28.620Z,6.92
2023-01-10T17:08:55.935Z,6.88
2023-01-10T17:11:30.804Z,6.89
2023-01-10T17:13:59.495Z,6.94
2023-01-10T17:16:26.898Z,6.94
2023-01-10T17:18:54.024Z,7.00
2023-01-10T17:21:23.102Z,6.81
2023-01-10T17:23:50.839Z,6.74
2023-01-10T17:26:19.717Z,6.81
2023-01-10T17:28:49.393Z,6.83
2023-01-10T17:31:20.339Z,6.70
2023-01-10T17:33:49.082Z,6.79
2023-01-10T17:36:19.178Z,6.92
2023-01-10T17:38:46.869Z,6.92
2023-01-10T17:41:14.547Z,6.74
2023-01-10T17:43:41.680Z,6.79
2023-01-10T17:46:10.818Z,6.89
2023-01-10T17:48:38.317Z,6.80
2023-01-10T17:51:06.079Z,6.73
2023-01-10T17:53:33.489Z,6.83
2023-01-10T17:56:01.675Z,6.88
2023-01-10T17:58:29.010Z,6.87
2023-01-10T18:00:56.354Z,6.71
2023-01-10T18:03:24.161Z,6.78
2023-01-10T18:05:54.687Z,6.71
2023-01-10T18:08:23.413Z,6.75
2023-01-10T18:10:51.554Z,6.78
2023-01-10T18:13:22.704Z,6.81
2023-01-10T18:15:50.137Z,6.83
2023-01-10T18:18:19.069Z,6.68
2023-01-10T18:20:46.687Z,6.73
2023-01-10T18:23:21.706Z,6.68
2023-01-10T18:25:56.415Z,6.84
2023-01-10T18:28:39.615Z,6.77
2023-01-10T18:31:12.440Z,6.89
2023-01-10T18:33:40.138Z,6.74
2023-01-10T18:36:14.717Z,6.84
2023-01-10T18:38:42.483Z,6.74
2023-01-10T18:41:09.806Z,6.81
2023-01-10T18:43:36.925Z,6.89
2023-01-10T18:46:14.495Z,6.77
2023-01-10T18:48:41.648Z,6.80
2023-01-10T18:51:12.292Z,6.85
2023-01-10T18:53:41.342Z,6.92
2023-01-10T18:56:10.156Z,6.75
2023-01-10T18:58:42.155Z,6.71
2023-01-10T19:01:18.801Z,6.81
2023-01-10T19:03:46.584Z,6.85
2023-01-10T19:06:17.055Z,6.91
2023-01-10T19:08:46.517Z,6.93
2023-01-10T19:11:16.659Z,6.83
2023-01-10T19:13:49.629Z,6.86
2023-01-10T19:16:26.321Z,6.90
2023-01-10T19:18:57.477Z,6.93
2023-01-10T19:21:27.085Z,6.91
2023-01-10T19:23:55.783Z,6.90
2023-01-10T19:26:24.397Z,6.85
2023-01-10T19:28:53.012Z,6.93
2023-01-10T19:31:27.545Z,6.88
2023-01-10T19:33:58.998Z,6.89
2023-01-10T19:36:26.522Z,6.93
2023-01-10T19:38:56.433Z,6.91
2023-01-10T19:41:29.402Z,6.91
2023-01-10T19:44:01.253Z,6.88
2023-01-10T19:46:32.084Z,6.91
2023-01-10T19:49:07.597Z,6.92
2023-01-10T19:51:40.811Z,6.99
2023-01-10T19:54:09.235Z,6.93
2023-01-10T19:56:36.486Z,6.99
2023-01-10T19:59:03.688Z,6.91
2023-01-10T20:01:31.994Z,6.94
2023-01-10T20:04:03.044Z,6.89
2023-01-10T20:06:32.772Z,6.87
2023-01-10T20:09:00.130Z,6.95
2023-01-10T20:11:37.381Z,6.91
2023-01-10T20:14:15.034Z,6.90
2023-01-10T20:16:42.864Z,7.01
2023-01-10T20:19:12.154Z,6.91
2023-01-10T20:21:41.611Z,7.01
2023-01-10T20:24:21.014Z,7.00
2023-01-10T20:26:50.368Z,6.96
2023-01-10T20:29:19.558Z,6.94
2023-01-10T20:31:49.660Z,6.96
2023-01-10T20:34:16.896Z,6.98
2023-01-10T20:36:44.057Z,7.05
2023-01-10T20:39:11.241Z,6.80
2023-01-10T20:41:38.413Z,6.97
2023-01-10T20:44:05.653Z,6.93
2023-01-10T20:46:33.882Z,6.81
2023-01-10T20:49:02.875Z,6.86
2023-01-10T20:51:35.115Z,6.75
2023-01-10T20:54:06.919Z,6.78
2023-01-10T20:56:35.320Z,6.54
2023-01-10T20:59:03.150Z,6.77
2023-01-10T21:01:35.172Z,6.67
2023-01-10T21:04:07.098Z,6.52
2023-01-10T21:06:36.044Z,6.58
2023-01-10T21:09:05.297Z,6.25
2023-01-10T21:11:36.718Z,6.39
2023-01-10T21:14:13.056Z,6.45
2023-01-10T21:16:40.256Z,6.35
2023-01-10T21:19:10.569Z,6.44
2023-01-10T21:21:38.355Z,6.32
2023-01-10T21:24:06.220Z,6.46
2023-01-10T21:26:33.490Z,6.39
2023-01-10T21:29:02.374Z,6.33
2023-01-10T21:31:29.590Z,6.23
2023-01-10T21:33:56.775Z,6.22
2023-01-10T21:36:23.977Z,6.36
2023-01-10T21:38:51.147Z,6.21
2023-01-10T21:41:38.794Z,6.25
2023-01-10T21:44:07.975Z,6.38
2023-01-10T21:46:35.648Z,6.37
2023-01-10T21:49:04.345Z,6.15
2023-01-10T21:51:31.715Z,6.19
2023-01-10T21:53:59.353Z,6.42
2023-01-10T21:56:26.505Z,6.28
2023-01-10T21:58:53.677Z,6.40
2023-01-10T22:01:20.977Z,6.39
2023-01-10T22:03:49.459Z,6.40
2023-01-10T22:06:16.727Z,6.35
2023-01-10T22:08:44.234Z,6.31
2023-01-10T22:11:11.742Z,6.42
2023-01-10T22:13:39.395Z,6.42
2023-01-10T22:16:07.151Z,6.47
2023-01-10T22:18:34.408Z,6.14
2023-01-10T22:21:02.179Z,6.22
2023-01-10T22:23:30.776Z,6.25
2023-01-10T22:26:10.895Z,6.14
2023-01-10T22:28:38.372Z,6.26
2023-01-10T22:31:06.256Z,6.17
2023-01-10T22:33:37.099Z,6.26
2023-01-10T22:36:06.846Z,6.26
2023-01-10T22:38:34.513Z,6.03
2023-01-10T22:41:10.239Z,6.01
2023-01-10T22:43:37.636Z,6.18
2023-01-10T22:46:05.914Z,6.19
2023-01-10T22:48:35.534Z,6.12
2023-01-10T22:51:02.753Z,6.23
2023-01-10T22:53:29.887Z,6.25
2023-01-10T22:56:03.205Z,6.26
2023-01-10T22:58:30.620Z,6.22
2023-01-10T23:00:57.998Z,6.27
2023-01-10T23:03:25.172Z,6.25
2023-01-10T23:05:57.287Z,6.20
2023-01-10T23:08:26.869Z,6.07
2023-01-10T23:10:54.518Z,6.29
2023-01-10T23:13:23.321Z,6.26
2023-01-10T23:16:02.518Z,6.36
2023-01-10T23:18:30.439Z,6.36
2023-01-10T23:20:58.102Z,6.40
2023-01-10T23:23:26.903Z,6.36
2023-01-10T23:26:03.336Z,6.34
2023-01-10T23:28:37.229Z,6.43
2023-01-10T23:31:06.478Z,6.43
2023-01-10T23:33:33.890Z,6.55
2023-01-10T23:36:01.301Z,6.45
2023-01-10T23:38:28.755Z,6.43
2023-01-10T23:40:56.363Z,6.49
2023-01-10T23:43:24.348Z,6.42
2023-01-10T23:45:51.818Z,6.48
2023-01-10T23:48:19.907Z,6.44
2023-01-10T23:50:49.654Z,6.50
2023-01-10T23:53:18.045Z,6.52
2023-01-10T23:55:45.535Z,6.48
2023-01-10T23:58:13.333Z,6.63
